Flight Track Log - Related Links

Times and Time Zones

All times are in EDT time to prevent confusion due to time zone crossing. See the DAL863 flight status page for this flight to view local times or setup timezone preferences in your user account.

Time Position Orientation Groundspeed Altitude Reporting Facility
EDT Latitude Longitude Course Direction KTS MPH feet Rate Location/Type
Sat 12:13:18 PM 40.6000 -73.7667 237° Southwest 190 219 1,900  Level New York TRACON
Sat 12:14:18 PM 40.5333 -73.7500 169° South 252 290 4,200 1,900 Climbing New York TRACON
Sat 12:15:00 PM 40.4082 -74.1309 232° Southwest  Level FlightAware Approximate
Sat 12:15:18 PM 40.4833 -73.8167 225° Southwest 271 312 5,700  Level New York TRACON
Sat 12:16:00 PM 40.3340 -74.2545 232° Southwest  Level FlightAware Approximate
Sat 12:16:18 PM 40.4333 -73.8833 225° Southwest 269 310 9,200  Level New York TRACON
Sat 12:17:00 PM 40.2580 -74.3753 217° Southwest  Level FlightAware Approximate
Sat 12:18:00 PM 40.1913 -74.5008 237° Southwest  Level FlightAware Approximate
Sat 12:18:01 PM 40.3642 -74.0397 240° Southwest 328 377 12,000  Level New York Center
Sat 12:19:03 PM 40.3211 -74.1656 246° West 351 404 12,000 500 Level New York Center
Sat 12:20:01 PM 40.2825 -74.2753 245° Southwest 358 412 13,000 1,800 Climbing New York Center
Sat 12:21:03 PM 40.2347 -74.4061 244° Southwest 384 442 15,600 1,918 Climbing New York Center
Sat 12:22:03 PM 40.1967 -74.5561 252° West 399 459 16,900 1,169 Climbing New York Center
Sat 12:23:01 PM 40.1856 -74.7050 264° West 399 459 17,900 1,412 Climbing New York Center
Sat 12:24:02 PM 40.1725 -74.8428 263° West 430 495 19,700 1,916 Climbing New York Center
Sat 12:25:00 PM 40.1628 -74.9972 265° West 430 495 21,700 1,916 Climbing New York Center
Sat 12:26:01 PM 40.1508 -75.1594 265° West 441 507 23,500 1,610 Climbing New York Center
Sat 12:27:03 PM 40.1358 -75.3294 263° West 457 526 25,000 1,714 Climbing New York Center
Sat 12:28:00 PM 40.1228 -75.5022 264° West 472 543 26,900 1,881 Climbing New York Center
Sat 12:29:01 PM 40.1097 -75.6725 264° West 479 551 28,700 1,770 Climbing New York Center
Sat 12:30:02 PM 40.0653 -75.8375 251° West 479 551 30,500 1,672 Climbing New York Center
Sat 12:31:03 PM 40.0122 -75.9964 246° West 479 551 32,100 1,135 Climbing New York Center
Sat 12:33:07 PM 39.8989 -76.3461 247° West 478 550 34,000 616 Climbing Washington Center
Sat 12:34:08 PM 39.8478 -76.5050 247° West 484 557 34,000  Level Washington Center
Sat 12:35:08 PM 39.7861 -76.6633 243° Southwest 484 557 34,000  Level Washington Center
Sat 12:36:07 PM 39.7325 -76.8244 247° West 484 557 34,000  Level Washington Center
Sat 12:37:07 PM 39.6806 -76.9856 247° West 484 557 34,000  Level Washington Center
Sat 12:38:08 PM 39.6244 -77.1486 246° West 484 557 34,000  Level Washington Center
Sat 12:39:08 PM 39.5703 -77.3064 246° West 484 557 34,000  Level Washington Center
Sat 12:40:05 PM 39.5200 -77.4531 246° West 500 575 34,000  Level Washington Center
Sat 12:41:06 PM 39.4653 -77.6158 247° West 500 575 34,000  Level Washington Center
Sat 12:42:07 PM 39.4083 -77.7808 246° West 500 575 34,000  Level Washington Center
Sat 12:43:07 PM 39.3469 -77.9400 244° Southwest 500 575 34,000  Level Washington Center
Sat 12:44:07 PM 39.2853 -78.1042 244° Southwest 500 575 34,000  Level Washington Center
Sat 12:45:08 PM 39.2367 -78.2311 244° Southwest 505 581 34,000  Level Washington Center
Sat 12:46:06 PM 39.1594 -78.4211 242° Southwest 505 581 34,000  Level Washington Center
Sat 12:47:07 PM 39.0931 -78.5844 242° Southwest 505 581 34,000  Level Washington Center
Sat 12:48:07 PM 39.0239 -78.7631 244° Southwest 505 581 34,000  Level Washington Center
Sat 12:49:08 PM 39.0069 -78.9253 262° West 497 572 34,000  Level Washington Center
Sat 12:50:08 PM 38.9789 -79.1031 259° West 509 586 34,000  Level Washington Center
Sat 12:51:06 PM 38.9539 -79.3100 261° West 526 605 34,000  Level Washington Center
Sat 12:52:06 PM 38.9261 -79.4608 257° West 519 597 34,000  Level Washington Center
Sat 12:53:07 PM 38.8967 -79.6592 259° West 519 597 34,000  Level Washington Center
Sat 12:54:07 PM 38.8722 -79.8233 259° West 534 615 34,000  Level Washington Center
Sat 12:55:08 PM 38.8428 -80.0028 258° West 523 602 34,000  Level Washington Center
Sat 12:56:29 PM 38.8144 -80.2539 262° West 515 593 34,000  Level Indianapolis Center
Sat 12:57:31 PM 38.8094 -80.4392 268° West 519 597 34,000  Level Indianapolis Center
Sat 12:58:33 PM 38.8050 -80.6222 268° West 518 596 34,000  Level Indianapolis Center
Sat 12:59:34 PM 38.7994 -80.8081 268° West 521 600 34,000  Level Indianapolis Center
Sat 01:00:36 PM 38.7933 -80.9928 268° West 521 600 34,000  Level Indianapolis Center
Sat 01:01:38 PM 38.7861 -81.2147 268° West 521 600 34,000  Level Indianapolis Center
Sat 01:02:40 PM 38.7811 -81.3975 268° West 520 598 34,000  Level Indianapolis Center
Sat 01:03:42 PM 38.7728 -81.5931 267° West 531 611 34,000  Level Indianapolis Center
Sat 01:04:44 PM 38.7664 -81.7631 267° West 530 610 34,000  Level Indianapolis Center
Sat 01:05:45 PM 38.7561 -81.9836 267° West 522 601 34,000  Level Indianapolis Center
Sat 01:06:47 PM 38.7489 -82.1711 267° West 526 605 34,000  Level Indianapolis Center
Sat 01:07:49 PM 38.7422 -82.3581 267° West 526 605 34,000  Level Indianapolis Center
Sat 01:08:51 PM 38.7344 -82.5472 267° West 530 610 34,000  Level Indianapolis Center
Sat 01:09:53 PM 38.7267 -82.7361 267° West 531 611 34,000  Level Indianapolis Center
Sat 01:10:55 PM 38.7186 -82.9247 267° West 531 611 34,000  Level Indianapolis Center
Sat 01:11:57 PM 38.7097 -83.1161 267° West 534 615 34,000 387 Level Indianapolis Center
Sat 01:12:59 PM 38.6997 -83.3261 267° West 536 617 34,800 919 Climbing Indianapolis Center
Sat 01:14:01 PM 38.6903 -83.5172 266° West 533 613 35,900 581 Climbing Indianapolis Center
Sat 01:15:03 PM 38.6811 -83.7081 267° West 532 612 36,000 48 Climbing Indianapolis Center
Sat 01:16:05 PM 38.6692 -83.9328 266° West 535 616 36,000  Level Indianapolis Center
Sat 01:17:07 PM 38.6594 -84.1219 266° West 531 611 36,000  Level Indianapolis Center
Sat 01:18:09 PM 38.6508 -84.3111 267° West 529 609 36,000  Level Indianapolis Center
Sat 01:19:11 PM 38.6592 -84.4983 273° West 523 602 36,000  Level Indianapolis Center
Sat 01:20:13 PM 38.6697 -84.6722 274° West 521 600 36,000  Level Indianapolis Center
Sat 01:21:15 PM 38.6814 -84.8558 275° West 518 596 36,000  Level Indianapolis Center
Sat 01:22:17 PM 38.6933 -85.0772 274° West 517 595 36,000  Level Indianapolis Center
Sat 01:23:18 PM 38.7031 -85.2611 274° West 518 596 36,000  Level Indianapolis Center
Sat 01:24:20 PM 38.7125 -85.4456 274° West 519 597 36,000  Level Indianapolis Center
Sat 01:25:22 PM 38.7219 -85.6317 274° West 523 602 36,000  Level Indianapolis Center
Sat 01:26:24 PM 38.7311 -85.8181 274° West 524 603 36,000  Level Indianapolis Center
Sat 01:27:26 PM 38.7397 -86.0114 273° West 523 602 36,000  Level Indianapolis Center
Sat 01:28:28 PM 38.7486 -86.1975 274° West 525 604 36,000  Level Indianapolis Center
Sat 01:29:30 PM 38.7569 -86.3831 273° West 521 600 36,000  Level Indianapolis Center
Sat 01:30:32 PM 38.7656 -86.6058 273° West 523 602 36,000  Level Indianapolis Center
Sat 01:31:33 PM 38.7742 -86.7897 273° West 521 600 36,000  Level Indianapolis Center
Sat 01:32:35 PM 38.7808 -86.9733 273° West 520 598 36,000  Level Indianapolis Center
Sat 01:33:37 PM 38.7889 -87.1567 273° West 520 598 36,000  Level Indianapolis Center
Sat 01:34:39 PM 38.7947 -87.3389 272° West 517 595 36,000  Level Indianapolis Center
Sat 01:35:40 PM 38.7858 -87.5206 266° West 516 594 36,000  Level Indianapolis Center
Sat 01:36:42 PM 38.7708 -87.7358 265° West 509 586 36,000  Level Indianapolis Center
Sat 01:37:44 PM 38.7606 -87.9164 266° West 510 587 36,000  Level Indianapolis Center
Sat 01:38:46 PM 38.7492 -88.0983 265° West 510 587 36,000  Level Indianapolis Center
Sat 01:39:43 PM 38.7372 -88.2789 265° West 507 583 36,000  Level Kansas City Center
Sat 01:40:45 PM 38.7064 -88.4519 257° West 499 574 36,000  Level Kansas City Center
Sat 01:41:47 PM 38.6531 -88.6167 248° West 501 577 36,000  Level Kansas City Center
Sat 01:42:49 PM 38.6019 -88.7886 249° West 499 574 36,000  Level Kansas City Center
Sat 01:43:51 PM 38.5528 -88.9683 251° West 500 575 36,000  Level Kansas City Center
Sat 01:44:53 PM 38.5128 -89.1378 253° West 500 575 36,000  Level Kansas City Center
Sat 01:45:55 PM 38.4708 -89.3208 254° West 500 575 36,000  Level Kansas City Center
Sat 01:46:57 PM 38.4336 -89.4919 255° West 501 577 36,000  Level Kansas City Center
Sat 01:47:59 PM 38.4003 -89.6653 256° West 502 578 36,000  Level Kansas City Center
Sat 01:49:01 PM 38.3711 -89.8231 257° West 502 578 36,000  Level Kansas City Center
Sat 01:50:03 PM 38.3364 -89.9975 256° West 503 579 36,000  Level Kansas City Center
Sat 01:51:05 PM 38.2967 -90.2064 256° West 503 579 36,000  Level Kansas City Center
Sat 01:52:07 PM 38.2661 -90.3811 257° West 503 579 36,000  Level Kansas City Center
Sat 01:53:09 PM 38.2397 -90.5561 259° West 502 578 36,000  Level Kansas City Center
Sat 01:54:11 PM 38.2283 -90.7331 265° West 501 577 36,000  Level Kansas City Center
Sat 01:55:13 PM 38.2172 -90.9089 265° West 500 575 36,000  Level Kansas City Center
Sat 01:56:15 PM 38.2053 -91.0806 265° West 473 544 36,000  Level Kansas City Center
Sat 01:57:17 PM 38.1925 -91.2519 265° West 483 556 36,000  Level Kansas City Center
Sat 01:58:19 PM 38.1811 -91.4547 266° West 481 554 36,000  Level Kansas City Center
Sat 01:59:21 PM 38.1686 -91.6256 265° West 480 552 36,000  Level Kansas City Center
Sat 02:00:24 PM 38.1564 -91.7950 265° West 481 554 36,000  Level Kansas City Center
Sat 02:01:26 PM 38.1439 -91.9625 265° West 474 545 36,000  Level Kansas City Center
Sat 02:02:28 PM 38.1311 -92.1325 265° West 467 537 36,000  Level Kansas City Center
Sat 02:03:30 PM 38.1186 -92.2975 265° West 471 542 36,000  Level Kansas City Center
Sat 02:04:32 PM 38.1042 -92.4983 265° West 478 550 36,000  Level Kansas City Center
Sat 02:05:34 PM 38.0897 -92.6622 264° West 472 543 36,000  Level Kansas City Center
Sat 02:06:36 PM 38.0758 -92.8133 263° West 469 540 36,000  Level Kansas City Center
Sat 02:07:38 PM 38.0592 -93.0111 264° West 470 541 36,000  Level Kansas City Center
Sat 02:08:40 PM 38.0461 -93.1744 264° West 467 537 36,000  Level Kansas City Center
Sat 02:09:42 PM 38.0317 -93.3389 264° West 469 540 36,000  Level Kansas City Center
Sat 02:10:44 PM 38.0175 -93.5053 264° West 472 543 36,000  Level Kansas City Center
Sat 02:11:47 PM 38.0022 -93.6711 263° West 474 545 36,000  Level Kansas City Center
Sat 02:12:49 PM 37.9883 -93.8372 264° West 473 544 36,000  Level Kansas City Center
Sat 02:13:51 PM 37.9700 -94.0364 263° West 475 547 36,000  Level Kansas City Center
Sat 02:14:53 PM 37.9553 -94.1842 263° West 472 543 36,000  Level Kansas City Center
Sat 02:15:55 PM 37.9386 -94.3650 263° West 470 541 36,000  Level Kansas City Center
Sat 02:16:57 PM 37.9217 -94.5236 262° West 467 537 36,000  Level Kansas City Center
Sat 02:17:59 PM 37.9050 -94.7011 263° West 459 528 36,000  Level Kansas City Center
Sat 02:19:01 PM 37.8900 -94.8503 263° West 450 518 36,000  Level Kansas City Center
Sat 02:20:03 PM 37.8728 -95.0206 263° West 440 506 36,000  Level Kansas City Center
Sat 02:21:05 PM 37.8589 -95.1556 263° West 435 501 36,000  Level Kansas City Center
Sat 02:22:07 PM 37.8428 -95.3025 262° West 428 493 36,000  Level Kansas City Center
Sat 02:23:09 PM 37.8242 -95.4825 263° West 430 495 36,000 97 Level Kansas City Center
Sat 02:24:11 PM 37.8086 -95.6319 263° West 430 495 36,200 629 Climbing Kansas City Center
Sat 02:25:13 PM 37.7917 -95.7861 262° West 437 503 37,300 871 Climbing Kansas City Center
Sat 02:26:15 PM 37.7739 -95.9408 262° West 443 510 38,000 339 Climbing Kansas City Center
Sat 02:27:17 PM 37.7578 -96.0900 262° West 434 499 38,000  Level Kansas City Center
Sat 02:28:19 PM 37.7400 -96.2489 262° West 436 502 38,000  Level Kansas City Center
Sat 02:29:21 PM 37.7231 -96.4042 262° West 443 510 38,000  Level Kansas City Center
Sat 02:30:23 PM 37.7053 -96.5594 262° West 447 514 38,000  Level Kansas City Center
Sat 02:31:25 PM 37.6867 -96.7139 261° West 446 513 38,000  Level Kansas City Center
Sat 02:32:27 PM 37.6653 -96.9028 262° West 452 520 38,000  Level Kansas City Center
Sat 02:33:29 PM 37.6456 -97.0600 261° West 453 521 38,000  Level Kansas City Center
Sat 02:34:31 PM 37.6267 -97.2169 261° West 453 521 38,000  Level Kansas City Center
Sat 02:35:33 PM 37.6072 -97.3728 261° West 449 517 38,000  Level Kansas City Center
Sat 02:36:35 PM 37.5883 -97.5272 261° West 444 511 38,000  Level Kansas City Center
Sat 02:37:37 PM 37.5689 -97.6808 261° West 441 507 38,000  Level Kansas City Center
Sat 02:38:39 PM 37.5494 -97.8339 261° West 439 505 38,000  Level Kansas City Center
Sat 02:39:41 PM 37.5258 -98.0139 261° West 433 498 38,000  Level Kansas City Center
Sat 02:40:43 PM 37.5072 -98.1625 261° West 428 493 38,000  Level Kansas City Center
Sat 02:41:45 PM 37.4889 -98.3103 261° West 426 490 38,000  Level Kansas City Center
Sat 02:42:47 PM 37.4689 -98.4581 260° West 426 490 38,000  Level Kansas City Center
Sat 02:43:49 PM 37.4503 -98.6050 261° West 425 489 38,000  Level Kansas City Center
Sat 02:44:51 PM 37.4303 -98.7494 260° West 421 484 38,000  Level Kansas City Center
Sat 02:45:53 PM 37.4097 -98.8950 260° West 422 486 38,000  Level Kansas City Center
Sat 02:46:55 PM 37.3894 -99.0419 260° West 425 489 38,000  Level Kansas City Center
Sat 02:47:57 PM 37.3644 -99.2144 260° West 420 483 38,000  Level Kansas City Center
Sat 02:48:59 PM 37.3433 -99.3589 260° West 420 483 38,000  Level Kansas City Center
Sat 02:50:01 PM 37.3250 -99.4978 261° West 417 480 38,000  Level Kansas City Center
Sat 02:51:03 PM 37.3033 -99.6592 260° West 418 481 38,000  Level Kansas City Center
Sat 02:52:05 PM 37.2836 -99.7981 260° West 420 483 38,000  Level Kansas City Center
Sat 02:53:07 PM 37.2586 -99.9594 259° West 421 484 38,000  Level Kansas City Center
Sat 02:54:09 PM 37.2383 -100.0989 260° West 423 487 38,000  Level Kansas City Center
Sat 02:55:11 PM 37.2150 -100.2614 260° West 423 487 38,000  Level Kansas City Center
Sat 02:56:13 PM 37.1944 -100.4011 260° West 423 487 38,000  Level Kansas City Center
Sat 02:57:14 PM 37.1719 -100.5411 259° West 425 489 38,000  Level Kansas City Center
Sat 02:58:16 PM 37.1481 -100.7036 260° West 423 487 38,000  Level Kansas City Center
Sat 02:59:18 PM 37.1258 -100.8433 259° West 425 489 38,000  Level Kansas City Center
Sat 03:00:20 PM 37.1008 -101.0044 259° West 422 486 38,000  Level Kansas City Center
Sat 03:01:22 PM 37.0792 -101.1433 259° West 423 487 38,000  Level Kansas City Center
Sat 03:02:24 PM 37.0539 -101.3047 259° West 422 486 38,000  Level Kansas City Center
Sat 03:03:26 PM 37.0322 -101.4406 259° West 418 481 38,000  Level Kansas City Center
Sat 03:04:27 PM 37.0100 -101.5772 259° West 418 481 38,000  Level Kansas City Center
Sat 03:05:29 PM 36.9842 -101.7356 259° West 417 480 38,000  Level Kansas City Center
Sat 03:06:31 PM 36.9628 -101.8708 259° West 415 478 38,000  Level Kansas City Center
Sat 03:07:33 PM 36.9375 -102.0297 259° West 417 480 38,000  Level Kansas City Center
Sat 03:08:25 PM 36.9200 -102.1433 259° West 415 478 38,000  Level Albuquerque Center
Sat 03:09:27 PM 36.8914 -102.3006 257° West 416 479 38,000  Level Albuquerque Center
Sat 03:10:28 PM 36.8697 -102.4347 259° West 415 478 38,000  Level Albuquerque Center
Sat 03:11:30 PM 36.8444 -102.5922 259° West 419 482 38,000  Level Albuquerque Center
Sat 03:12:31 PM 36.8208 -102.7278 258° West 418 481 38,000  Level Albuquerque Center
Sat 03:13:33 PM 36.7981 -102.8611 258° West 412 474 38,000  Level Albuquerque Center
Sat 03:14:34 PM 36.7706 -103.0167 258° West 410 472 38,000  Level Albuquerque Center
Sat 03:15:36 PM 36.7478 -103.1500 258° West 410 472 38,000  Level Albuquerque Center
Sat 03:16:37 PM 36.7206 -103.3019 257° West 405 466 38,000  Level Albuquerque Center
Sat 03:17:39 PM 36.6978 -103.4328 258° West 403 464 38,000  Level Albuquerque Center
Sat 03:18:41 PM 36.6742 -103.5644 257° West 405 466 38,000  Level Albuquerque Center
Sat 03:19:42 PM 36.6481 -103.7117 258° West 403 464 38,000  Level Albuquerque Center
Sat 03:20:44 PM 36.6228 -103.8517 257° West 408 470 38,000  Level Albuquerque Center
Sat 03:21:45 PM 36.5975 -103.9897 257° West 408 470 38,000  Level Albuquerque Center
Sat 03:22:47 PM 36.5719 -104.1281 257° West 408 470 38,000  Level Albuquerque Center
Sat 03:23:48 PM 36.5461 -104.2653 257° West 407 468 38,000  Level Albuquerque Center
Sat 03:24:50 PM 36.5164 -104.4281 257° West 410 472 38,000  Level Albuquerque Center
Sat 03:25:52 PM 36.4900 -104.5683 257° West 413 475 38,000  Level Albuquerque Center
Sat 03:26:53 PM 36.4631 -104.7078 257° West 414 476 38,000  Level Albuquerque Center
Sat 03:27:55 PM 36.4361 -104.8492 257° West 417 480 38,000  Level Albuquerque Center
Sat 03:28:56 PM 36.4083 -104.9928 257° West 422 486 38,000  Level Albuquerque Center
Sat 03:29:58 PM 36.3794 -105.1353 256° West 424 488 38,000  Level Albuquerque Center
Sat 03:30:59 PM 36.3525 -105.2764 257° West 420 483 38,000  Level Albuquerque Center
Sat 03:32:01 PM 36.3253 -105.4186 257° West 421 484 38,000  Level Albuquerque Center
Sat 03:33:02 PM 36.2967 -105.5639 256° West 423 487 38,000  Level Albuquerque Center
Sat 03:34:04 PM 36.2692 -105.7039 256° West 421 484 38,000  Level Albuquerque Center
Sat 03:35:05 PM 36.2408 -105.8461 256° West 424 488 38,000  Level Albuquerque Center
Sat 03:36:07 PM 36.2136 -105.9872 257° West 423 487 38,000  Level Albuquerque Center
Sat 03:37:09 PM 36.1856 -106.1256 256° West 419 482 38,000  Level Albuquerque Center
Sat 03:38:10 PM 36.1522 -106.2928 256° West 418 481 38,000  Level Albuquerque Center
Sat 03:39:12 PM 36.1228 -106.4317 255° West 418 481 38,000  Level Albuquerque Center
Sat 03:40:13 PM 36.0942 -106.5694 256° West 416 479 38,000  Level Albuquerque Center
Sat 03:41:15 PM 36.0656 -106.7072 256° West 416 479 38,000  Level Albuquerque Center
Sat 03:42:17 PM 36.0386 -106.8425 256° West 411 473 38,000  Level Albuquerque Center
Sat 03:43:18 PM 36.0094 -106.9806 255° West 414 476 38,000  Level Albuquerque Center
Sat 03:44:20 PM 35.9794 -107.1167 255° West 413 475 38,000  Level Albuquerque Center
Sat 03:45:21 PM 35.9456 -107.2778 255° West 413 475 38,000  Level Albuquerque Center
Sat 03:46:23 PM 35.9175 -107.4086 255° West 412 474 38,000  Level Albuquerque Center
Sat 03:47:24 PM 35.8842 -107.5622 255° West 414 476 38,000  Level Albuquerque Center
Sat 03:48:26 PM 35.8561 -107.6914 255° West 410 472 38,000  Level Albuquerque Center
Sat 03:49:28 PM 35.8239 -107.8428 255° West 409 471 38,000  Level Albuquerque Center
Sat 03:50:29 PM 35.7956 -107.9719 255° West 408 470 38,000  Level Albuquerque Center
Sat 03:51:31 PM 35.7667 -108.1028 255° West 410 472 38,000  Level Albuquerque Center
Sat 03:52:32 PM 35.7328 -108.2542 255° West 411 473 38,000  Level Albuquerque Center
Sat 03:53:34 PM 35.7042 -108.3833 255° West 409 471 38,000  Level Albuquerque Center
Sat 03:54:35 PM 35.6692 -108.5344 254° West 409 471 38,000  Level Albuquerque Center
Sat 03:55:37 PM 35.6400 -108.6653 255° West 411 473 38,000  Level Albuquerque Center
Sat 03:56:38 PM 35.6103 -108.7936 254° West 408 470 38,000  Level Albuquerque Center
Sat 03:57:40 PM 35.5756 -108.9458 254° West 410 472 38,000  Level Albuquerque Center
Sat 03:58:41 PM 35.5450 -109.0761 254° West 410 472 38,000  Level Albuquerque Center
Sat 03:59:43 PM 35.5161 -109.2061 255° West 410 472 38,000  Level Albuquerque Center
Sat 04:00:44 PM 35.4806 -109.3572 254° West 412 474 38,000  Level Albuquerque Center
Sat 04:01:46 PM 35.4500 -109.4883 254° West 414 476 38,000  Level Albuquerque Center
Sat 04:02:47 PM 35.4136 -109.6389 254° West 414 476 38,000  Level Albuquerque Center
Sat 04:03:49 PM 35.3836 -109.7678 254° West 413 475 38,000  Level Albuquerque Center
Sat 04:04:50 PM 35.3519 -109.8967 253° West 412 474 38,000  Level Albuquerque Center
Sat 04:05:52 PM 35.3142 -110.0472 253° West 416 479 38,000  Level Albuquerque Center
Sat 04:06:53 PM 35.2825 -110.1769 253° West 416 479 38,000  Level Albuquerque Center
Sat 04:07:55 PM 35.2464 -110.3261 254° West 412 474 38,000  Level Albuquerque Center
Sat 04:08:56 PM 35.2136 -110.4553 253° West 412 474 38,000  Level Albuquerque Center
Sat 04:09:58 PM 35.1814 -110.5836 253° West 412 474 38,000  Level Albuquerque Center
Sat 04:10:59 PM 35.1450 -110.7339 254° West 413 475 38,000  Level Albuquerque Center
Sat 04:12:00 PM 35.1125 -110.8617 253° West 412 474 38,000  Level Albuquerque Center
Sat 04:13:02 PM 35.0864 -111.0167 258° West 413 475 38,000  Level Albuquerque Center
Sat 04:14:04 PM 35.0650 -111.1467 259° West 423 487 38,000  Level Albuquerque Center
Sat 04:15:05 PM 35.0383 -111.2833 257° West 420 483 38,000  Level Albuquerque Center
Sat 04:16:07 PM 35.0122 -111.4192 257° West 415 478 38,000  Level Albuquerque Center
Sat 04:17:08 PM 34.9814 -111.5825 257° West 414 476 38,000  Level Albuquerque Center
Sat 04:18:10 PM 34.9564 -111.7178 257° West 413 475 38,000  Level Albuquerque Center
Sat 04:19:11 PM 34.9336 -111.8394 257° West 413 475 38,000  Level Albuquerque Center
Sat 04:20:13 PM 34.9067 -111.9758 256° West 415 478 38,000  Level Albuquerque Center
Sat 04:21:14 PM 34.8753 -112.1375 257° West 413 475 38,000  Level Albuquerque Center
Sat 04:22:16 PM 34.8494 -112.2739 257° West 413 475 38,000  Level Albuquerque Center
Sat 04:23:18 PM 34.8228 -112.4100 257° West 414 476 38,000  Level Albuquerque Center
Sat 04:24:19 PM 34.7956 -112.5456 256° West 413 475 38,000  Level Albuquerque Center
Sat 04:25:21 PM 34.7692 -112.6825 257° West 415 478 38,000  Level Albuquerque Center
Sat 04:26:22 PM 34.7419 -112.8200 256° West 417 480 38,000  Level Albuquerque Center
Sat 04:27:24 PM 34.7147 -112.9556 256° West 416 479 38,000  Level Albuquerque Center
Sat 04:28:26 PM 34.6817 -113.1189 256° West 416 479 38,000  Level Albuquerque Center
Sat 04:29:27 PM 34.6528 -113.2542 255° West 415 478 38,000  Level Albuquerque Center
Sat 04:30:29 PM 34.6261 -113.3911 257° West 416 479 38,000  Level Albuquerque Center
Sat 04:31:31 PM 34.5981 -113.5278 256° West 417 480 38,000  Level Albuquerque Center
Sat 04:32:32 PM 34.5689 -113.6661 256° West 417 480 38,000  Level Albuquerque Center
Sat 04:33:34 PM 34.5394 -113.8033 255° West 419 482 38,000  Level Albuquerque Center
Sat 04:34:35 PM 34.5111 -113.9392 256° West 417 480 38,000  Level Albuquerque Center
Sat 04:35:37 PM 34.4822 -114.0769 256° West 420 483 38,000  Level Albuquerque Center
Sat 04:36:38 PM 34.4528 -114.2242 256° West 416 479 38,000  Level Los Angeles Center
Sat 04:37:40 PM 34.4219 -114.3617 255° West 423 487 38,000  Level Los Angeles Center
Sat 04:38:42 PM 34.3942 -114.4972 256° West 417 480 38,000  Level Los Angeles Center
Sat 04:39:44 PM 34.3583 -114.6628 255° West 424 488 38,000  Level Los Angeles Center
Sat 04:40:46 PM 34.3289 -114.7978 255° West 418 481 38,000  Level Los Angeles Center
Sat 04:41:48 PM 34.2992 -114.9350 255° West 422 486 38,000 -145 Level Los Angeles Center
Sat 04:42:50 PM 34.2692 -115.0711 255° West 421 484 37,700 -823 Descending Los Angeles Center
Sat 04:43:52 PM 34.2394 -115.2075 255° West 421 484 36,300 -1,645 Descending Los Angeles Center
Sat 04:44:54 PM 34.2078 -115.3436 254° West 423 487 34,300 -3,048 Descending Los Angeles Center
Sat 04:45:56 PM 34.1689 -115.5142 255° West 434 499 30,000 -2,565 Descending Los Angeles Center
Sat 04:46:58 PM 34.1378 -115.6567 255° West 440 506 29,000 -484 Descending Los Angeles Center
Sat 04:48:00 PM 34.1064 -115.8022 255° West 450 518 29,000  Level Los Angeles Center
Sat 04:49:02 PM 34.0858 -115.9494 260° West 448 516 29,000 -242 Level Los Angeles Center
Sat 04:50:04 PM 34.0644 -116.0969 260° West 449 517 28,500 -629 Descending Los Angeles Center
Sat 04:51:06 PM 34.0422 -116.2425 260° West 445 512 27,700 -871 Descending Los Angeles Center
Sat 04:52:08 PM 34.0153 -116.4139 259° West 437 503 26,700 -823 Descending Los Angeles Center
Sat 04:53:10 PM 33.9992 -116.5572 262° West 433 498 26,000 -1,016 Descending Los Angeles Center
Sat 04:54:12 PM 33.9883 -116.6986 265° West 428 493 24,600 -2,081 Descending Los Angeles Center
Sat 04:55:14 PM 33.9778 -116.8347 265° West 414 476 21,700 -3,051 Descending Los Angeles Center
Sat 04:56:10 PM 33.9667 -116.9833 265° West 398 458 18,600 -2,431 Descending Southern California TRACON
Sat 04:57:10 PM 33.9500 -117.1000 260° West 388 447 17,000 -1,300 Descending Southern California TRACON
Sat 04:58:10 PM 33.9500 -117.2167 270° West 347 399 16,000 -950 Descending Southern California TRACON
Sat 04:59:10 PM 33.9333 -117.3333 260° West 344 396 15,100 -1,240 Descending Southern California TRACON
Sat 05:00:11 PM 33.9500 -117.4500 280° West 339 390 13,500 -1,537 Descending Southern California TRACON
Sat 05:01:11 PM 34.0000 -117.5500 301° West 326 375 12,000 -1,550 Descending Southern California TRACON
Sat 05:02:11 PM 34.0167 -117.6500 281° West 327 376 10,400 -1,300 Descending Southern California TRACON
Sat 05:03:11 PM 34.0000 -117.7500 259° West 275 316 9,400 -1,200 Descending Southern California TRACON
Sat 05:04:11 PM 34.0000 -117.8333 270° West 281 323 8,000 -1,300 Descending Southern California TRACON
Sat 05:05:11 PM 33.9833 -117.9333 259° West 276 318 6,800 -1,050 Descending Southern California TRACON
Sat 05:06:11 PM 33.9667 -118.0167 256° West 254 292 5,900 -1,000 Descending Southern California TRACON
Sat 05:07:11 PM 33.9667 -118.1000 270° West 238 274 4,800 -1,100 Descending Southern California TRACON
Sat 05:08:11 PM 33.9667 -118.1667 270° West 194 223 3,700 -1,041 Descending Southern California TRACON
Sat 05:09:12 PM 33.9500 -118.2333 253° West 186 214 2,700 -984 Descending Southern California TRACON

Login

Don't have an account? Register now (free) for customized features, flight alerts, and more!